Time,TemperatureF,DewpointF,PressureIn,WindDirection,WindDirectionDegrees,WindSpeedMPH,WindSpeedGustMPH,Humidity,HourlyPrecipIn,Conditions,Clouds,dailyrainin,SoftwareType,DateUTC
2013-06-08 00:00:00,52.2,47.8,29.82,SE,135,0.0,2.0,85,0.03,,,-99.99,WeatherLink 5.5,2013-06-08 04:00:00,
2013-06-08 00:01:00,52.3,47.9,29.81,North,-999,0.0,0.0,85,0.04,,,-99.99,WeatherLink 5.5,2013-06-08 04:01:00,
2013-06-08 00:05:00,52.2,47.8,29.82,North,-999,0.0,0.0,85,0.03,,,-99.99,WeatherLink 5.5,2013-06-08 04:05:00,
2013-06-08 00:10:00,52.2,47.8,29.82,North,-999,0.0,0.0,85,0.03,,,-99.99,WeatherLink 5.5,2013-06-08 04:10:00,
2013-06-08 00:15:00,52.2,47.8,29.82,North,-999,0.0,0.0,85,0.03,,,-99.99,WeatherLink 5.5,2013-06-08 04:15:00,
2013-06-08 00:20:00,52.2,48.1,29.81,North,-999,0.0,0.0,86,0.03,,,-99.99,WeatherLink 5.5,2013-06-08 04:20:00,
2013-06-08 00:25:00,52.2,48.1,29.81,South,180,1.0,4.0,86,0.03,,,-99.99,WeatherLink 5.5,2013-06-08 04:25:00,
2013-06-08 00:30:00,52.2,48.1,29.81,South,180,1.0,4.0,86,0.03,,,-99.99,WeatherLink 5.5,2013-06-08 04:30:00,
2013-06-08 00:35:00,52.0,47.9,29.79,NNE,22,0.0,4.0,86,0.03,,,-99.99,WeatherLink 5.5,2013-06-08 04:35:00,
2013-06-08 00:40:00,52.0,47.9,29.79,North,-999,0.0,0.0,86,0.02,,,-99.99,WeatherLink 5.5,2013-06-08 04:40:00,
2013-06-08 00:45:00,52.0,47.9,29.79,North,-999,0.0,0.0,86,0.02,,,-99.99,WeatherLink 5.5,2013-06-08 04:45:00,
2013-06-08 00:50:00,52.0,47.9,29.77,NE,45,0.0,2.0,86,0.00,,,-99.99,WeatherLink 5.5,2013-06-08 04:50:00,
2013-06-08 00:55:00,52.0,47.9,29.77,ENE,67,0.0,2.0,86,0.00,,,-99.99,WeatherLink 5.5,2013-06-08 04:55:00,
2013-06-08 01:00:00,52.0,47.9,29.77,ENE,67,0.0,2.0,86,0.00,,,-99.99,WeatherLink 5.5,2013-06-08 05:00:00,
2013-06-08 01:05:00,52.0,47.9,29.76,East,90,0.0,1.0,86,0.00,,,-99.99,WeatherLink 5.5,2013-06-08 05:05:00,
2013-06-08 01:10:00,52.0,47.9,29.76,ENE,67,0.0,2.0,86,0.00,,,-99.99,WeatherLink 5.5,2013-06-08 05:10:00,
2013-06-08 01:15:00,52.0,47.9,29.76,ENE,67,0.0,2.0,86,0.00,,,-99.99,WeatherLink 5.5,2013-06-08 05:15:00,
2013-06-08 01:20:00,51.9,47.8,29.74,NNW,337,1.0,9.0,86,0.00,,,-99.99,WeatherLink 5.5,2013-06-08 05:20:00,
2013-06-08 01:25:00,51.9,47.8,29.74,NNW,337,0.0,1.0,86,0.01,,,-99.99,WeatherLink 5.5,2013-06-08 05:25:00,
2013-06-08 01:30:00,51.9,47.8,29.74,NNW,337,0.0,1.0,86,0.01,,,-99.99,WeatherLink 5.5,2013-06-08 05:30:00,
2013-06-08 01:35:00,51.9,47.8,29.76,WSW,247,0.0,1.0,86,0.09,,,-99.99,WeatherLink 5.5,2013-06-08 05:35:00,
2013-06-08 01:40:00,51.7,47.6,29.76,WSW,247,0.0,4.0,86,0.13,,,-99.99,WeatherLink 5.5,2013-06-08 05:40:00,
2013-06-08 01:45:00,51.7,47.6,29.76,WSW,247,0.0,4.0,86,0.13,,,-99.99,WeatherLink 5.5,2013-06-08 05:45:00,
2013-06-08 01:50:00,51.7,47.6,29.74,NE,45,0.0,1.0,86,0.25,,,-99.99,WeatherLink 5.5,2013-06-08 05:50:00,
2013-06-08 01:55:00,51.7,47.6,29.74,North,-999,0.0,0.0,86,0.28,,,-99.99,WeatherLink 5.5,2013-06-08 05:55:00,
2013-06-08 02:00:00,51.7,47.6,29.74,North,-999,0.0,0.0,86,0.28,,,-99.99,WeatherLink 5.5,2013-06-08 06:00:00,
2013-06-08 02:05:00,51.9,47.8,29.74,North,-999,0.0,0.0,86,0.32,,,-99.99,WeatherLink 5.5,2013-06-08 06:05:00,
2013-06-08 02:10:00,51.9,47.8,29.74,North,-999,0.0,0.0,86,0.33,,,-99.99,WeatherLink 5.5,2013-06-08 06:10:00,
2013-06-08 02:15:00,51.9,47.8,29.74,North,-999,0.0,0.0,86,0.33,,,-99.99,WeatherLink 5.5,2013-06-08 06:15:00,
2013-06-08 02:20:00,51.9,47.8,29.72,North,-999,0.0,0.0,86,0.35,,,-99.99,WeatherLink 5.5,2013-06-08 06:20:00,
2013-06-08 02:25:00,51.9,47.8,29.72,North,-999,0.0,0.0,86,0.35,,,-99.99,WeatherLink 5.5,2013-06-08 06:25:00,
2013-06-08 02:30:00,51.9,47.8,29.72,North,-999,0.0,0.0,86,0.35,,,-99.99,WeatherLink 5.5,2013-06-08 06:30:00,
2013-06-08 02:35:00,51.9,47.8,29.72,WSW,247,0.0,2.0,86,0.28,,,-99.99,WeatherLink 5.5,2013-06-08 06:35:00,
2013-06-08 02:40:00,51.9,47.8,29.72,North,-999,0.0,0.0,86,0.24,,,-99.99,WeatherLink 5.5,2013-06-08 06:40:00,
2013-06-08 02:45:00,51.9,47.8,29.72,North,-999,0.0,0.0,86,0.24,,,-99.99,WeatherLink 5.5,2013-06-08 06:45:00,
2013-06-08 02:50:00,51.9,47.8,29.69,North,-999,0.0,0.0,86,0.14,,,-99.99,WeatherLink 5.5,2013-06-08 06:50:00,
2013-06-08 02:55:00,51.9,47.8,29.69,SW,225,0.0,2.0,86,0.11,,,-99.99,WeatherLink 5.5,2013-06-08 06:55:00,
2013-06-08 03:00:00,51.9,47.8,29.69,SW,225,0.0,2.0,86,0.11,,,-99.99,WeatherLink 5.5,2013-06-08 07:00:00,
2013-06-08 03:05:00,52.0,47.9,29.70,WSW,247,0.0,1.0,86,0.07,,,-99.99,WeatherLink 5.5,2013-06-08 07:05:00,
2013-06-08 03:10:00,52.0,47.9,29.70,WSW,247,0.0,4.0,86,0.06,,,-99.99,WeatherLink 5.5,2013-06-08 07:10:00,
2013-06-08 03:15:00,52.0,47.9,29.70,WSW,247,0.0,4.0,86,0.06,,,-99.99,WeatherLink 5.5,2013-06-08 07:15:00,
2013-06-08 03:20:00,52.0,47.9,29.68,ENE,67,0.0,2.0,86,0.04,,,-99.99,WeatherLink 5.5,2013-06-08 07:20:00,
2013-06-08 03:25:00,52.0,47.9,29.68,ENE,67,0.0,1.0,86,0.03,,,-99.99,WeatherLink 5.5,2013-06-08 07:25:00,
2013-06-08 03:30:00,52.0,47.9,29.68,ENE,67,0.0,1.0,86,0.03,,,-99.99,WeatherLink 5.5,2013-06-08 07:30:00,
2013-06-08 03:35:00,52.0,47.9,29.68,North,-999,0.0,0.0,86,0.02,,,-99.99,WeatherLink 5.5,2013-06-08 07:35:00,
2013-06-08 03:40:00,52.2,48.1,29.68,North,-999,0.0,0.0,86,0.02,,,-99.99,WeatherLink 5.5,2013-06-08 07:40:00,
2013-06-08 03:45:00,52.2,48.1,29.68,North,-999,0.0,0.0,86,0.02,,,-99.99,WeatherLink 5.5,2013-06-08 07:45:00,
2013-06-08 03:50:00,52.2,48.1,29.68,North,-999,0.0,0.0,86,0.00,,,-99.99,WeatherLink 5.5,2013-06-08 07:50:00,
2013-06-08 03:55:00,52.3,48.2,29.68,North,-999,0.0,0.0,86,0.00,,,-99.99,WeatherLink 5.5,2013-06-08 07:55:00,
2013-06-08 04:00:00,52.3,48.2,29.68,North,-999,0.0,0.0,86,0.00,,,-99.99,WeatherLink 5.5,2013-06-08 08:00:00,
2013-06-08 04:05:00,52.3,48.2,29.66,ENE,67,0.0,2.0,86,0.00,,,-99.99,WeatherLink 5.5,2013-06-08 08:05:00,
2013-06-08 04:10:00,52.3,48.2,29.66,SSW,202,0.0,8.0,86,0.00,,,-99.99,WeatherLink 5.5,2013-06-08 08:10:00,
2013-06-08 04:15:00,52.3,48.2,29.66,SSW,202,0.0,8.0,86,0.00,,,-99.99,WeatherLink 5.5,2013-06-08 08:15:00,
2013-06-08 04:20:00,52.5,48.4,29.66,SSE,157,0.0,4.0,86,0.00,,,-99.99,WeatherLink 5.5,2013-06-08 08:20:00,
2013-06-08 04:25:00,52.5,48.4,29.66,SSE,157,0.0,1.0,86,0.00,,,-99.99,WeatherLink 5.5,2013-06-08 08:25:00,
2013-06-08 04:30:00,52.5,48.4,29.66,SSE,157,0.0,1.0,86,0.00,,,-99.99,WeatherLink 5.5,2013-06-08 08:30:00,
2013-06-08 04:35:00,52.5,48.4,29.65,NNE,22,0.0,2.0,86,0.00,,,-99.99,WeatherLink 5.5,2013-06-08 08:35:00,
2013-06-08 04:40:00,52.6,48.5,29.65,NNE,22,0.0,1.0,86,0.00,,,-99.99,WeatherLink 5.5,2013-06-08 08:40:00,
2013-06-08 04:45:00,52.6,48.5,29.65,NNE,22,0.0,1.0,86,0.00,,,-99.99,WeatherLink 5.5,2013-06-08 08:45:00,
2013-06-08 04:50:00,52.6,48.5,29.65,SSW,202,0.0,1.0,86,0.00,,,-99.99,WeatherLink 5.5,2013-06-08 08:50:00,
2013-06-08 04:55:00,52.6,48.5,29.65,NE,45,0.0,2.0,86,0.00,,,-99.99,WeatherLink 5.5,2013-06-08 08:55:00,
2013-06-08 05:00:00,52.6,48.5,29.65,NE,45,0.0,2.0,86,0.00,,,-99.99,WeatherLink 5.5,2013-06-08 09:00:00,
2013-06-08 05:05:00,52.8,48.7,29.64,SW,225,0.0,10.0,86,0.00,,,-99.99,WeatherLink 5.5,2013-06-08 09:05:00,
2013-06-08 05:10:00,52.8,48.7,29.64,SW,225,0.0,2.0,86,0.00,,,-99.99,WeatherLink 5.5,2013-06-08 09:10:00,
2013-06-08 05:15:00,52.8,48.7,29.64,SW,225,0.0,2.0,86,0.00,,,-99.99,WeatherLink 5.5,2013-06-08 09:15:00,
2013-06-08 05:20:00,52.9,48.8,29.63,SW,225,0.0,1.0,86,0.00,,,-99.99,WeatherLink 5.5,2013-06-08 09:20:00,
2013-06-08 05:25:00,52.9,48.8,29.63,SW,225,0.0,2.0,86,0.00,,,-99.99,WeatherLink 5.5,2013-06-08 09:25:00,
2013-06-08 05:30:00,52.9,48.8,29.63,SW,225,0.0,2.0,86,0.00,,,-99.99,WeatherLink 5.5,2013-06-08 09:30:00,
2013-06-08 05:35:00,52.9,48.8,29.63,North,-999,0.0,0.0,86,0.00,,,-99.99,WeatherLink 5.5,2013-06-08 09:35:00,
2013-06-08 05:40:00,52.9,48.8,29.63,SSE,157,0.0,2.0,86,0.00,,,-99.99,WeatherLink 5.5,2013-06-08 09:40:00,
2013-06-08 05:45:00,52.9,48.8,29.63,SSE,157,0.0,2.0,86,0.00,,,-99.99,WeatherLink 5.5,2013-06-08 09:45:00,
2013-06-08 05:50:00,53.0,48.9,29.63,ESE,112,0.0,1.0,86,0.00,,,-99.99,WeatherLink 5.5,2013-06-08 09:50:00,
2013-06-08 05:55:00,53.0,48.9,29.63,SW,225,1.0,4.0,86,0.00,,,-99.99,WeatherLink 5.5,2013-06-08 09:55:00,
2013-06-08 06:00:00,53.0,48.9,29.63,SW,225,1.0,4.0,86,0.00,,,-99.99,WeatherLink 5.5,2013-06-08 10:00:00,
2013-06-08 06:05:00,53.2,49.4,29.62,WNW,292,0.0,4.0,87,0.00,,,-99.99,WeatherLink 5.5,2013-06-08 10:05:00,
2013-06-08 06:10:00,53.2,49.1,29.62,SW,225,0.0,4.0,86,0.00,,,-99.99,WeatherLink 5.5,2013-06-08 10:10:00,
2013-06-08 06:15:00,53.2,49.1,29.62,SW,225,0.0,4.0,86,0.00,,,-99.99,WeatherLink 5.5,2013-06-08 10:15:00,
2013-06-08 06:20:00,53.2,49.1,29.62,North,-999,0.0,0.0,86,0.00,,,-99.99,WeatherLink 5.5,2013-06-08 10:20:00,
2013-06-08 06:25:00,53.3,49.2,29.62,SW,225,0.0,4.0,86,0.00,,,-99.99,WeatherLink 5.5,2013-06-08 10:25:00,
2013-06-08 06:30:00,53.3,49.2,29.62,SW,225,0.0,4.0,86,0.00,,,-99.99,WeatherLink 5.5,2013-06-08 10:30:00,
2013-06-08 06:35:00,53.3,49.2,29.62,South,180,1.0,6.0,86,0.00,,,-99.99,WeatherLink 5.5,2013-06-08 10:35:00,
2013-06-08 06:40:00,53.5,49.4,29.62,South,180,0.0,6.0,86,0.00,,,-99.99,WeatherLink 5.5,2013-06-08 10:40:00,
2013-06-08 06:45:00,53.5,49.4,29.62,South,180,0.0,6.0,86,0.00,,,-99.99,WeatherLink 5.5,2013-06-08 10:45:00,
2013-06-08 06:50:00,53.5,49.4,29.61,SW,225,0.0,4.0,86,0.00,,,-99.99,WeatherLink 5.5,2013-06-08 10:50:00,
2013-06-08 06:55:00,53.6,49.5,29.61,SW,225,0.0,4.0,86,0.00,,,-99.99,WeatherLink 5.5,2013-06-08 10:55:00,
2013-06-08 07:00:00,53.6,49.5,29.61,SW,225,0.0,4.0,86,0.00,,,-99.99,WeatherLink 5.5,2013-06-08 11:00:00,
2013-06-08 07:05:00,53.8,49.7,29.62,SW,225,0.0,2.0,86,0.00,,,-99.99,WeatherLink 5.5,2013-06-08 11:05:00,
2013-06-08 07:10:00,53.6,49.5,29.62,WNW,292,1.0,6.0,86,0.00,,,-99.99,WeatherLink 5.5,2013-06-08 11:10:00,
2013-06-08 07:15:00,53.6,49.5,29.62,WNW,292,1.0,6.0,86,0.00,,,-99.99,WeatherLink 5.5,2013-06-08 11:15:00,
2013-06-08 07:20:00,53.8,49.7,29.62,WSW,247,1.0,6.0,86,0.00,,,-99.99,WeatherLink 5.5,2013-06-08 11:20:00,
2013-06-08 07:25:00,53.8,49.7,29.62,WSW,247,0.0,2.0,86,0.00,,,-99.99,WeatherLink 5.5,2013-06-08 11:25:00,
2013-06-08 07:30:00,53.8,49.7,29.62,WSW,247,0.0,2.0,86,0.00,,,-99.99,WeatherLink 5.5,2013-06-08 11:30:00,
2013-06-08 07:35:00,53.8,49.7,29.62,WSW,247,0.0,4.0,86,0.00,,,-99.99,WeatherLink 5.5,2013-06-08 11:35:00,
2013-06-08 07:40:00,53.9,49.8,29.62,NE,45,0.0,4.0,86,0.00,,,-99.99,WeatherLink 5.5,2013-06-08 11:40:00,
2013-06-08 07:45:00,53.9,49.8,29.62,NE,45,0.0,4.0,86,0.00,,,-99.99,WeatherLink 5.5,2013-06-08 11:45:00,
2013-06-08 07:50:00,53.9,49.8,29.61,WSW,247,2.0,7.0,86,0.00,,,-99.99,WeatherLink 5.5,2013-06-08 11:50:00,
2013-06-08 07:55:00,53.9,50.1,29.61,WNW,292,1.0,6.0,87,0.00,,,-99.99,WeatherLink 5.5,2013-06-08 11:55:00,
2013-06-08 08:00:00,53.9,50.1,29.61,WNW,292,1.0,6.0,87,0.00,,,-99.99,WeatherLink 5.5,2013-06-08 12:00:00,
2013-06-08 08:05:00,54.1,50.6,29.62,WNW,292,2.0,7.0,88,0.00,,,-99.99,WeatherLink 5.5,2013-06-08 12:05:00,
2013-06-08 08:10:00,54.1,50.0,29.62,SW,225,2.0,9.0,86,0.00,,,-99.99,WeatherLink 5.5,2013-06-08 12:10:00,
2013-06-08 08:15:00,54.1,50.0,29.62,SW,225,2.0,9.0,86,0.00,,,-99.99,WeatherLink 5.5,2013-06-08 12:15:00,
2013-06-08 08:20:00,54.4,50.3,29.63,WSW,247,1.0,6.0,86,0.00,,,-99.99,WeatherLink 5.5,2013-06-08 12:20:00,
2013-06-08 08:25:00,54.5,50.4,29.63,WSW,247,1.0,4.0,86,0.00,,,-99.99,WeatherLink 5.5,2013-06-08 12:25:00,
2013-06-08 08:30:00,54.5,50.4,29.63,WSW,247,1.0,4.0,86,0.00,,,-99.99,WeatherLink 5.5,2013-06-08 12:30:00,
2013-06-08 08:35:00,54.8,50.7,29.63,WSW,247,1.0,4.0,86,0.00,,,-99.99,WeatherLink 5.5,2013-06-08 12:35:00,
2013-06-08 08:40:00,54.8,50.7,29.63,WSW,247,3.0,9.0,86,0.00,,,-99.99,WeatherLink 5.5,2013-06-08 12:40:00,
2013-06-08 08:45:00,54.8,50.7,29.63,WSW,247,3.0,9.0,86,0.00,,,-99.99,WeatherLink 5.5,2013-06-08 12:45:00,
2013-06-08 08:50:00,55.3,51.2,29.66,WSW,247,2.0,7.0,86,0.00,,,-99.99,WeatherLink 5.5,2013-06-08 12:50:00,
2013-06-08 08:55:00,55.4,51.3,29.66,SW,225,2.0,9.0,86,0.00,,,-99.99,WeatherLink 5.5,2013-06-08 12:55:00,
2013-06-08 09:00:00,55.4,51.3,29.66,SW,225,2.0,9.0,86,0.00,,,-99.99,WeatherLink 5.5,2013-06-08 13:00:00,
2013-06-08 09:05:00,55.7,51.6,29.67,WNW,292,1.0,6.0,86,0.00,,,-99.99,WeatherLink 5.5,2013-06-08 13:05:00,
2013-06-08 09:10:00,55.7,51.6,29.67,WSW,247,3.0,9.0,86,0.00,,,-99.99,WeatherLink 5.5,2013-06-08 13:10:00,
2013-06-08 09:15:00,55.7,51.6,29.67,WSW,247,3.0,9.0,86,0.00,,,-99.99,WeatherLink 5.5,2013-06-08 13:15:00,
2013-06-08 09:20:00,56.2,52.1,29.68,WSW,247,2.0,8.0,86,0.00,,,-99.99,WeatherLink 5.5,2013-06-08 13:20:00,
2013-06-08 09:25:00,56.4,52.3,29.68,WSW,247,1.0,8.0,86,0.00,,,-99.99,WeatherLink 5.5,2013-06-08 13:25:00,
2013-06-08 09:30:00,56.4,52.3,29.68,WSW,247,1.0,8.0,86,0.00,,,-99.99,WeatherLink 5.5,2013-06-08 13:30:00,
2013-06-08 09:35:00,57.0,52.9,29.68,SW,225,1.0,13.0,86,0.00,,,-99.99,WeatherLink 5.5,2013-06-08 13:35:00,
2013-06-08 09:40:00,57.5,53.3,29.68,WNW,292,1.0,10.0,86,0.00,,,-99.99,WeatherLink 5.5,2013-06-08 13:40:00,
2013-06-08 09:45:00,57.5,53.3,29.68,WNW,292,1.0,10.0,86,0.00,,,-99.99,WeatherLink 5.5,2013-06-08 13:45:00,
2013-06-08 09:50:00,58.1,53.6,29.69,WSW,247,1.0,4.0,85,0.00,,,-99.99,WeatherLink 5.5,2013-06-08 13:50:00,
2013-06-08 09:55:00,58.7,54.2,29.69,WSW,247,2.0,8.0,85,0.00,,,-99.99,WeatherLink 5.5,2013-06-08 13:55:00,
2013-06-08 10:00:00,58.7,54.2,29.69,WSW,247,2.0,8.0,85,0.00,,,-99.99,WeatherLink 5.5,2013-06-08 14:00:00,
2013-06-08 10:05:00,59.0,53.8,29.69,WSW,247,2.0,8.0,83,0.00,,,-99.99,WeatherLink 5.5,2013-06-08 14:05:00,
2013-06-08 10:10:00,59.3,53.8,29.69,WSW,247,3.0,14.0,82,0.00,,,-99.99,WeatherLink 5.5,2013-06-08 14:10:00,
2013-06-08 10:15:00,59.3,53.8,29.69,WSW,247,3.0,14.0,82,0.00,,,-99.99,WeatherLink 5.5,2013-06-08 14:15:00,
2013-06-08 10:20:00,60.2,54.0,29.70,SW,225,1.0,6.0,80,0.00,,,-99.99,WeatherLink 5.5,2013-06-08 14:20:00,
2013-06-08 10:25:00,60.6,53.7,29.70,WSW,247,2.0,8.0,78,0.00,,,-99.99,WeatherLink 5.5,2013-06-08 14:25:00,
2013-06-08 10:30:00,60.6,53.7,29.70,WSW,247,2.0,8.0,78,0.00,,,-99.99,WeatherLink 5.5,2013-06-08 14:30:00,
2013-06-08 10:35:00,61.5,53.9,29.70,WSW,247,2.0,6.0,76,0.00,,,-99.99,WeatherLink 5.5,2013-06-08 14:35:00,
2013-06-08 10:40:00,62.0,53.2,29.70,WNW,292,2.0,7.0,73,0.00,,,-99.99,WeatherLink 5.5,2013-06-08 14:40:00,
2013-06-08 10:45:00,62.0,53.2,29.70,WNW,292,2.0,7.0,73,0.00,,,-99.99,WeatherLink 5.5,2013-06-08 14:45:00,
2013-06-08 10:50:00,62.8,53.3,29.71,WSW,247,3.0,8.0,71,0.00,,,-99.99,WeatherLink 5.5,2013-06-08 14:50:00,
2013-06-08 10:55:00,63.2,53.3,29.71,West,270,2.0,7.0,70,0.00,,,-99.99,WeatherLink 5.5,2013-06-08 14:55:00,
2013-06-08 11:00:00,63.2,53.3,29.71,West,270,2.0,7.0,70,0.00,,,-99.99,WeatherLink 5.5,2013-06-08 15:00:00,
2013-06-08 11:05:00,64.5,53.3,29.71,West,270,0.0,2.0,67,0.00,,,-99.99,WeatherLink 5.5,2013-06-08 15:05:00,
2013-06-08 11:10:00,65.3,54.1,29.71,WSW,247,0.0,1.0,67,0.00,,,-99.99,WeatherLink 5.5,2013-06-08 15:10:00,
2013-06-08 11:15:00,65.3,54.1,29.71,WSW,247,0.0,1.0,67,0.00,,,-99.99,WeatherLink 5.5,2013-06-08 15:15:00,
2013-06-08 11:20:00,66.3,54.2,29.72,WSW,247,0.0,2.0,65,0.00,,,-99.99,WeatherLink 5.5,2013-06-08 15:20:00,
2013-06-08 11:25:00,66.3,54.2,29.72,West,270,3.0,10.0,65,0.00,,,-99.99,WeatherLink 5.5,2013-06-08 15:25:00,
2013-06-08 11:30:00,66.3,54.2,29.72,West,270,3.0,10.0,65,0.00,,,-99.99,WeatherLink 5.5,2013-06-08 15:30:00,
2013-06-08 11:35:00,67.0,53.5,29.73,SW,225,1.0,9.0,62,0.00,,,-99.99,WeatherLink 5.5,2013-06-08 15:35:00,
2013-06-08 11:40:00,67.3,53.4,29.73,WSW,247,3.0,9.0,61,0.00,,,-99.99,WeatherLink 5.5,2013-06-08 15:40:00,
2013-06-08 11:45:00,67.3,53.4,29.73,WSW,247,3.0,9.0,61,0.00,,,-99.99,WeatherLink 5.5,2013-06-08 15:45:00,
2013-06-08 11:50:00,68.3,53.9,29.74,WSW,247,3.0,11.0,60,0.00,,,-99.99,WeatherLink 5.5,2013-06-08 15:50:00,
2013-06-08 11:55:00,69.1,54.6,29.74,SW,225,1.0,9.0,60,0.00,,,-99.99,WeatherLink 5.5,2013-06-08 15:55:00,
2013-06-08 12:00:00,69.1,54.6,29.74,SW,225,1.0,9.0,60,0.00,,,-99.99,WeatherLink 5.5,2013-06-08 16:00:00,
2013-06-08 12:05:00,70.1,55.6,29.74,WSW,247,1.0,7.0,60,0.00,,,-99.99,WeatherLink 5.5,2013-06-08 16:05:00,
2013-06-08 12:10:00,70.6,55.6,29.74,SSW,202,1.0,7.0,59,0.00,,,-99.99,WeatherLink 5.5,2013-06-08 16:10:00,
2013-06-08 12:15:00,70.6,55.6,29.74,SSW,202,1.0,7.0,59,0.00,,,-99.99,WeatherLink 5.5,2013-06-08 16:15:00,
2013-06-08 12:20:00,70.8,55.8,29.74,WSW,247,2.0,8.0,59,0.00,,,-99.99,WeatherLink 5.5,2013-06-08 16:20:00,
2013-06-08 12:25:00,71.2,55.2,29.74,West,270,1.0,8.0,57,0.00,,,-99.99,WeatherLink 5.5,2013-06-08 16:25:00,
2013-06-08 12:30:00,71.2,55.2,29.74,West,270,1.0,8.0,57,0.00,,,-99.99,WeatherLink 5.5,2013-06-08 16:30:00,
2013-06-08 12:35:00,71.2,55.2,29.75,WSW,247,2.0,11.0,57,0.00,,,-99.99,WeatherLink 5.5,2013-06-08 16:35:00,
2013-06-08 12:40:00,71.0,55.9,29.75,WSW,247,4.0,14.0,59,0.00,,,-99.99,WeatherLink 5.5,2013-06-08 16:40:00,
2013-06-08 12:45:00,71.0,55.9,29.75,WSW,247,4.0,14.0,59,0.00,,,-99.99,WeatherLink 5.5,2013-06-08 16:45:00,
2013-06-08 12:50:00,71.7,54.2,29.75,WNW,292,4.0,17.0,54,0.00,,,-99.99,WeatherLink 5.5,2013-06-08 16:50:00,
2013-06-08 12:55:00,71.8,54.3,29.75,WNW,292,2.0,7.0,54,0.00,,,-99.99,WeatherLink 5.5,2013-06-08 16:55:00,
2013-06-08 13:00:00,71.8,54.3,29.75,WNW,292,2.0,7.0,54,0.00,,,-99.99,WeatherLink 5.5,2013-06-08 17:00:00,
2013-06-08 13:05:00,72.5,54.9,29.75,WSW,247,4.0,10.0,54,0.00,,,-99.99,WeatherLink 5.5,2013-06-08 17:05:00,
2013-06-08 13:10:00,72.7,55.1,29.75,WNW,292,2.0,10.0,54,0.00,,,-99.99,WeatherLink 5.5,2013-06-08 17:10:00,
2013-06-08 13:15:00,72.7,55.1,29.75,WNW,292,2.0,10.0,54,0.00,,,-99.99,WeatherLink 5.5,2013-06-08 17:15:00,
2013-06-08 13:20:00,73.2,55.6,29.75,WSW,247,6.0,15.0,54,0.00,,,-99.99,WeatherLink 5.5,2013-06-08 17:20:00,
2013-06-08 13:25:00,73.4,54.7,29.75,SW,225,3.0,14.0,52,0.00,,,-99.99,WeatherLink 5.5,2013-06-08 17:25:00,
2013-06-08 13:30:00,73.4,54.7,29.75,SW,225,3.0,14.0,52,0.00,,,-99.99,WeatherLink 5.5,2013-06-08 17:30:00,
2013-06-08 13:35:00,73.9,55.2,29.76,SW,225,5.0,11.0,52,0.00,,,-99.99,WeatherLink 5.5,2013-06-08 17:35:00,
2013-06-08 13:40:00,74.1,55.9,29.76,WSW,247,2.0,10.0,53,0.00,,,-99.99,WeatherLink 5.5,2013-06-08 17:40:00,
2013-06-08 13:45:00,74.1,55.9,29.76,WSW,247,2.0,10.0,53,0.00,,,-99.99,WeatherLink 5.5,2013-06-08 17:45:00,
2013-06-08 13:50:00,74.6,55.3,29.76,SW,225,1.0,8.0,51,0.00,,,-99.99,WeatherLink 5.5,2013-06-08 17:50:00,
2013-06-08 13:55:00,74.6,56.3,29.76,WSW,247,0.0,2.0,53,0.00,,,-99.99,WeatherLink 5.5,2013-06-08 17:55:00,
2013-06-08 14:00:00,74.6,56.3,29.76,WSW,247,0.0,2.0,53,0.00,,,-99.99,WeatherLink 5.5,2013-06-08 18:00:00,
2013-06-08 14:05:00,74.8,55.5,29.76,SE,135,2.0,9.0,51,0.00,,,-99.99,WeatherLink 5.5,2013-06-08 18:05:00,
2013-06-08 14:10:00,74.8,55.5,29.76,WSW,247,1.0,9.0,51,0.00,,,-99.99,WeatherLink 5.5,2013-06-08 18:10:00,
2013-06-08 14:15:00,74.8,55.5,29.76,WSW,247,1.0,9.0,51,0.00,,,-99.99,WeatherLink 5.5,2013-06-08 18:15:00,
2013-06-08 14:20:00,75.1,56.3,29.76,WSW,247,1.0,10.0,52,0.00,,,-99.99,WeatherLink 5.5,2013-06-08 18:20:00,
2013-06-08 14:25:00,75.3,55.9,29.76,West,270,0.0,4.0,51,0.00,,,-99.99,WeatherLink 5.5,2013-06-08 18:25:00,
2013-06-08 14:30:00,75.3,55.9,29.76,West,270,0.0,4.0,51,0.00,,,-99.99,WeatherLink 5.5,2013-06-08 18:30:00,
2013-06-08 14:35:00,76.0,57.1,29.76,WSW,247,0.0,4.0,52,0.00,,,-99.99,WeatherLink 5.5,2013-06-08 18:35:00,
2013-06-08 14:40:00,76.0,55.5,29.76,SW,225,2.0,8.0,49,0.00,,,-99.99,WeatherLink 5.5,2013-06-08 18:40:00,
2013-06-08 14:45:00,76.0,55.5,29.76,SW,225,2.0,8.0,49,0.00,,,-99.99,WeatherLink 5.5,2013-06-08 18:45:00,
2013-06-08 14:50:00,76.4,55.8,29.77,WSW,247,3.0,14.0,49,0.00,,,-99.99,WeatherLink 5.5,2013-06-08 18:50:00,
2013-06-08 14:55:00,76.7,57.2,29.77,WSW,247,1.0,10.0,51,0.00,,,-99.99,WeatherLink 5.5,2013-06-08 18:55:00,
2013-06-08 15:00:00,76.7,57.2,29.77,WSW,247,1.0,10.0,51,0.00,,,-99.99,WeatherLink 5.5,2013-06-08 19:00:00,
2013-06-08 15:05:00,77.1,56.5,29.77,WNW,292,2.0,9.0,49,0.00,,,-99.99,WeatherLink 5.5,2013-06-08 19:05:00,
2013-06-08 15:10:00,76.9,56.3,29.77,SW,225,1.0,8.0,49,0.00,,,-99.99,WeatherLink 5.5,2013-06-08 19:10:00,
2013-06-08 15:15:00,76.9,56.3,29.77,SW,225,1.0,8.0,49,0.00,,,-99.99,WeatherLink 5.5,2013-06-08 19:15:00,
2013-06-08 15:20:00,77.1,56.5,29.77,WSW,247,3.0,9.0,49,0.00,,,-99.99,WeatherLink 5.5,2013-06-08 19:20:00,
2013-06-08 15:25:00,76.4,56.4,29.77,WSW,247,4.0,11.0,50,0.00,,,-99.99,WeatherLink 5.5,2013-06-08 19:25:00,
2013-06-08 15:30:00,76.4,56.4,29.77,WSW,247,4.0,11.0,50,0.00,,,-99.99,WeatherLink 5.5,2013-06-08 19:30:00,
2013-06-08 15:35:00,75.8,56.4,29.78,WSW,247,4.0,11.0,51,0.00,,,-99.99,WeatherLink 5.5,2013-06-08 19:35:00,
2013-06-08 15:40:00,75.5,56.6,29.78,WSW,247,1.0,7.0,52,0.00,,,-99.99,WeatherLink 5.5,2013-06-08 19:40:00,
2013-06-08 15:45:00,75.5,56.6,29.78,WSW,247,1.0,7.0,52,0.00,,,-99.99,WeatherLink 5.5,2013-06-08 19:45:00,
2013-06-08 15:50:00,75.5,57.2,29.79,SW,225,0.0,4.0,53,0.00,,,-99.99,WeatherLink 5.5,2013-06-08 19:50:00,
2013-06-08 15:55:00,75.8,56.4,29.79,SW,225,3.0,10.0,51,0.00,,,-99.99,WeatherLink 5.5,2013-06-08 19:55:00,
2013-06-08 16:00:00,75.8,56.4,29.79,SW,225,3.0,10.0,51,0.00,,,-99.99,WeatherLink 5.5,2013-06-08 20:00:00,
2013-06-08 16:05:00,76.5,56.5,29.79,NW,315,0.0,1.0,50,0.00,,,-99.99,WeatherLink 5.5,2013-06-08 20:05:00,
2013-06-08 16:10:00,76.2,56.7,29.79,SW,225,2.0,9.0,51,0.00,,,-99.99,WeatherLink 5.5,2013-06-08 20:10:00,
2013-06-08 16:15:00,76.2,56.7,29.79,SW,225,2.0,9.0,51,0.00,,,-99.99,WeatherLink 5.5,2013-06-08 20:15:00,
2013-06-08 16:20:00,75.8,56.4,29.80,WSW,247,1.0,6.0,51,0.00,,,-99.99,WeatherLink 5.5,2013-06-08 20:20:00,
2013-06-08 16:25:00,76.0,57.6,29.80,SW,225,1.0,6.0,53,0.00,,,-99.99,WeatherLink 5.5,2013-06-08 20:25:00,
2013-06-08 16:30:00,76.0,57.6,29.80,SW,225,1.0,6.0,53,0.00,,,-99.99,WeatherLink 5.5,2013-06-08 20:30:00,
2013-06-08 16:35:00,75.8,56.4,29.79,SW,225,0.0,4.0,51,0.00,,,-99.99,WeatherLink 5.5,2013-06-08 20:35:00,
2013-06-08 16:40:00,75.7,56.8,29.79,North,-999,0.0,0.0,52,0.00,,,-99.99,WeatherLink 5.5,2013-06-08 20:40:00,
2013-06-08 16:45:00,75.7,56.8,29.79,North,-999,0.0,0.0,52,0.00,,,-99.99,WeatherLink 5.5,2013-06-08 20:45:00,
2013-06-08 16:50:00,75.5,56.6,29.80,WSW,247,1.0,8.0,52,0.00,,,-99.99,WeatherLink 5.5,2013-06-08 20:50:00,
2013-06-08 16:55:00,75.5,57.2,29.80,WSW,247,0.0,7.0,53,0.00,,,-99.99,WeatherLink 5.5,2013-06-08 20:55:00,
2013-06-08 17:00:00,75.5,57.2,29.80,WSW,247,0.0,7.0,53,0.00,,,-99.99,WeatherLink 5.5,2013-06-08 21:00:00,
2013-06-08 17:05:00,75.1,56.8,29.81,SW,225,1.0,7.0,53,0.00,,,-99.99,WeatherLink 5.5,2013-06-08 21:05:00,
2013-06-08 17:10:00,74.8,56.0,29.81,SW,225,1.0,7.0,52,0.00,,,-99.99,WeatherLink 5.5,2013-06-08 21:10:00,
2013-06-08 17:15:00,74.8,56.0,29.81,SW,225,1.0,7.0,52,0.00,,,-99.99,WeatherLink 5.5,2013-06-08 21:15:00,
2013-06-08 17:20:00,74.8,56.5,29.82,WSW,247,3.0,10.0,53,0.00,,,-99.99,WeatherLink 5.5,2013-06-08 21:20:00,
2013-06-08 17:25:00,74.6,56.3,29.82,SW,225,1.0,8.0,53,0.00,,,-99.99,WeatherLink 5.5,2013-06-08 21:25:00,
2013-06-08 17:30:00,74.6,56.3,29.82,SW,225,1.0,8.0,53,0.00,,,-99.99,WeatherLink 5.5,2013-06-08 21:30:00,
2013-06-08 17:35:00,73.9,55.7,29.83,SW,225,2.0,11.0,53,0.00,,,-99.99,WeatherLink 5.5,2013-06-08 21:35:00,
2013-06-08 17:40:00,73.7,55.5,29.83,SW,225,2.0,11.0,53,0.00,,,-99.99,WeatherLink 5.5,2013-06-08 21:40:00,
2013-06-08 17:45:00,73.7,55.5,29.83,SW,225,2.0,11.0,53,0.00,,,-99.99,WeatherLink 5.5,2013-06-08 21:45:00,
2013-06-08 17:50:00,73.4,57.2,29.84,SW,225,0.0,7.0,57,0.00,,,-99.99,WeatherLink 5.5,2013-06-08 21:50:00,
2013-06-08 17:55:00,73.2,56.6,29.84,SW,225,0.0,1.0,56,0.00,,,-99.99,WeatherLink 5.5,2013-06-08 21:55:00,
2013-06-08 18:00:00,73.2,56.6,29.84,SW,225,0.0,1.0,56,0.00,,,-99.99,WeatherLink 5.5,2013-06-08 22:00:00,
2013-06-08 18:05:00,72.7,56.1,29.84,WNW,292,3.0,10.0,56,0.00,,,-99.99,WeatherLink 5.5,2013-06-08 22:05:00,
2013-06-08 18:10:00,72.4,55.3,29.84,West,270,3.0,9.0,55,0.00,,,-99.99,WeatherLink 5.5,2013-06-08 22:10:00,
2013-06-08 18:15:00,72.4,55.3,29.84,West,270,3.0,9.0,55,0.00,,,-99.99,WeatherLink 5.5,2013-06-08 22:15:00,
2013-06-08 18:20:00,71.8,54.3,29.85,WSW,247,2.0,7.0,54,0.00,,,-99.99,WeatherLink 5.5,2013-06-08 22:20:00,
2013-06-08 18:25:00,71.7,54.7,29.85,WSW,247,0.0,6.0,55,0.00,,,-99.99,WeatherLink 5.5,2013-06-08 22:25:00,
2013-06-08 18:30:00,71.7,54.7,29.85,WSW,247,0.0,6.0,55,0.00,,,-99.99,WeatherLink 5.5,2013-06-08 22:30:00,
2013-06-08 18:35:00,71.3,54.3,29.86,North,-999,0.0,0.0,55,0.00,,,-99.99,WeatherLink 5.5,2013-06-08 22:35:00,
2013-06-08 18:40:00,71.2,54.7,29.86,West,270,0.0,6.0,56,0.00,,,-99.99,WeatherLink 5.5,2013-06-08 22:40:00,
2013-06-08 18:45:00,71.2,54.7,29.86,West,270,0.0,6.0,56,0.00,,,-99.99,WeatherLink 5.5,2013-06-08 22:45:00,
2013-06-08 18:50:00,70.8,53.8,29.87,WSW,247,1.0,7.0,55,0.00,,,-99.99,WeatherLink 5.5,2013-06-08 22:50:00,
2013-06-08 18:55:00,70.6,54.1,29.87,SW,225,1.0,9.0,56,0.00,,,-99.99,WeatherLink 5.5,2013-06-08 22:55:00,
2013-06-08 19:00:00,70.6,54.1,29.87,SW,225,1.0,9.0,56,0.00,,,-99.99,WeatherLink 5.5,2013-06-08 23:00:00,
2013-06-08 19:05:00,70.3,53.9,29.88,West,270,1.0,7.0,56,0.00,,,-99.99,WeatherLink 5.5,2013-06-08 23:05:00,
2013-06-08 19:10:00,70.3,53.9,29.88,West,270,0.0,2.0,56,0.00,,,-99.99,WeatherLink 5.5,2013-06-08 23:10:00,
2013-06-08 19:15:00,70.3,53.9,29.88,West,270,0.0,2.0,56,0.00,,,-99.99,WeatherLink 5.5,2013-06-08 23:15:00,
2013-06-08 19:20:00,70.0,54.1,29.88,WSW,247,1.0,6.0,57,0.00,,,-99.99,WeatherLink 5.5,2013-06-08 23:20:00,
2013-06-08 19:25:00,69.8,53.9,29.88,WNW,292,1.0,8.0,57,0.00,,,-99.99,WeatherLink 5.5,2013-06-08 23:25:00,
2013-06-08 19:30:00,69.8,53.9,29.88,WNW,292,1.0,8.0,57,0.00,,,-99.99,WeatherLink 5.5,2013-06-08 23:30:00,
2013-06-08 19:35:00,69.6,53.7,29.89,WSW,247,2.0,6.0,57,0.00,,,-99.99,WeatherLink 5.5,2013-06-08 23:35:00,
2013-06-08 19:40:00,69.5,54.1,29.89,North,-999,0.0,0.0,58,0.00,,,-99.99,WeatherLink 5.5,2013-06-08 23:40:00,
2013-06-08 19:45:00,69.5,54.1,29.89,North,-999,0.0,0.0,58,0.00,,,-99.99,WeatherLink 5.5,2013-06-08 23:45:00,
2013-06-08 19:50:00,69.3,54.4,29.89,SW,225,0.0,4.0,59,0.00,,,-99.99,WeatherLink 5.5,2013-06-08 23:50:00,
2013-06-08 19:55:00,69.1,54.6,29.89,North,-999,0.0,0.0,60,0.00,,,-99.99,WeatherLink 5.5,2013-06-08 23:55:00,
2013-06-08 20:00:00,69.1,54.6,29.89,North,-999,0.0,0.0,60,0.00,,,-99.99,WeatherLink 5.5,2013-06-09 00:00:00,
2013-06-08 20:05:00,68.8,54.3,29.88,West,270,0.0,6.0,60,0.00,,,-99.99,WeatherLink 5.5,2013-06-09 00:05:00,
2013-06-08 20:10:00,68.6,54.2,29.88,SW,225,1.0,7.0,60,0.00,,,-99.99,WeatherLink 5.5,2013-06-09 00:10:00,
2013-06-08 20:15:00,68.6,54.2,29.88,SW,225,1.0,7.0,60,0.00,,,-99.99,WeatherLink 5.5,2013-06-09 00:15:00,
2013-06-08 20:20:00,68.3,54.8,29.89,North,-999,0.0,0.0,62,0.00,,,-99.99,WeatherLink 5.5,2013-06-09 00:20:00,
2013-06-08 20:25:00,68.1,54.6,29.89,WSW,247,0.0,6.0,62,0.00,,,-99.99,WeatherLink 5.5,2013-06-09 00:25:00,
2013-06-08 20:30:00,68.1,54.6,29.89,WSW,247,0.0,6.0,62,0.00,,,-99.99,WeatherLink 5.5,2013-06-09 00:30:00,
2013-06-08 20:35:00,67.5,54.9,29.90,North,-999,0.0,0.0,64,0.00,,,-99.99,WeatherLink 5.5,2013-06-09 00:35:00,
2013-06-08 20:40:00,67.0,54.8,29.90,North,-999,0.0,0.0,65,0.00,,,-99.99,WeatherLink 5.5,2013-06-09 00:40:00,
2013-06-08 20:45:00,67.0,54.8,29.90,North,-999,0.0,0.0,65,0.00,,,-99.99,WeatherLink 5.5,2013-06-09 00:45:00,
2013-06-08 20:50:00,66.1,54.4,29.90,North,-999,0.0,0.0,66,0.00,,,-99.99,WeatherLink 5.5,2013-06-09 00:50:00,
2013-06-08 20:55:00,66.0,54.7,29.90,North,-999,0.0,0.0,67,0.00,,,-99.99,WeatherLink 5.5,2013-06-09 00:55:00,
2013-06-08 21:00:00,66.0,54.7,29.90,North,-999,0.0,0.0,67,0.00,,,-99.99,WeatherLink 5.5,2013-06-09 01:00:00,
2013-06-08 21:05:00,65.3,54.9,29.91,North,-999,0.0,0.0,69,0.00,,,-99.99,WeatherLink 5.5,2013-06-09 01:05:00,
2013-06-08 21:10:00,65.0,55.0,29.91,North,-999,0.0,0.0,70,0.00,,,-99.99,WeatherLink 5.5,2013-06-09 01:10:00,
2013-06-08 21:15:00,65.0,55.0,29.91,North,-999,0.0,0.0,70,0.00,,,-99.99,WeatherLink 5.5,2013-06-09 01:15:00,
2013-06-08 21:20:00,64.5,54.9,29.91,North,-999,0.0,0.0,71,0.00,,,-99.99,WeatherLink 5.5,2013-06-09 01:20:00,
2013-06-08 21:25:00,64.2,54.6,29.91,North,-999,0.0,0.0,71,0.00,,,-99.99,WeatherLink 5.5,2013-06-09 01:25:00,
2013-06-08 21:30:00,64.2,54.6,29.91,North,-999,0.0,0.0,71,0.00,,,-99.99,WeatherLink 5.5,2013-06-09 01:30:00,
2013-06-08 21:35:00,63.7,54.5,29.92,North,-999,0.0,0.0,72,0.00,,,-99.99,WeatherLink 5.5,2013-06-09 01:35:00,
2013-06-08 21:40:00,63.6,54.8,29.92,North,-999,0.0,0.0,73,0.00,,,-99.99,WeatherLink 5.5,2013-06-09 01:40:00,
2013-06-08 21:45:00,63.6,54.8,29.92,North,-999,0.0,0.0,73,0.00,,,-99.99,WeatherLink 5.5,2013-06-09 01:45:00,
2013-06-08 21:50:00,63.1,54.7,29.92,North,-999,0.0,0.0,74,0.00,,,-99.99,WeatherLink 5.5,2013-06-09 01:50:00,
2013-06-08 21:55:00,62.9,54.5,29.92,North,-999,0.0,0.0,74,0.00,,,-99.99,WeatherLink 5.5,2013-06-09 01:55:00,
2013-06-08 22:00:00,62.9,54.5,29.92,North,-999,0.0,0.0,74,0.00,,,-99.99,WeatherLink 5.5,2013-06-09 02:00:00,
2013-06-08 22:05:00,62.4,54.4,29.93,North,-999,0.0,0.0,75,0.00,,,-99.99,WeatherLink 5.5,2013-06-09 02:05:00,
2013-06-08 22:10:00,62.1,54.4,29.93,North,-999,0.0,0.0,76,0.00,,,-99.99,WeatherLink 5.5,2013-06-09 02:10:00,
2013-06-08 22:15:00,62.1,54.4,29.93,North,-999,0.0,0.0,76,0.00,,,-99.99,WeatherLink 5.5,2013-06-09 02:15:00,
2013-06-08 22:20:00,61.8,54.2,29.93,North,-999,0.0,0.0,76,0.00,,,-99.99,WeatherLink 5.5,2013-06-09 02:20:00,
2013-06-08 22:25:00,61.8,54.5,29.93,North,-999,0.0,0.0,77,0.00,,,-99.99,WeatherLink 5.5,2013-06-09 02:25:00,
2013-06-08 22:30:00,61.8,54.5,29.93,North,-999,0.0,0.0,77,0.00,,,-99.99,WeatherLink 5.5,2013-06-09 02:30:00,
2013-06-08 22:35:00,61.5,54.6,29.94,North,-999,0.0,0.0,78,0.00,,,-99.99,WeatherLink 5.5,2013-06-09 02:35:00,
2013-06-08 22:40:00,61.3,54.4,29.94,North,-999,0.0,0.0,78,0.00,,,-99.99,WeatherLink 5.5,2013-06-09 02:40:00,
2013-06-08 22:45:00,61.3,54.4,29.94,North,-999,0.0,0.0,78,0.00,,,-99.99,WeatherLink 5.5,2013-06-09 02:45:00,
2013-06-08 22:50:00,61.0,54.4,29.95,North,-999,0.0,0.0,79,0.00,,,-99.99,WeatherLink 5.5,2013-06-09 02:50:00,
2013-06-08 22:55:00,60.9,54.3,29.95,North,-999,0.0,0.0,79,0.00,,,-99.99,WeatherLink 5.5,2013-06-09 02:55:00,
2013-06-08 23:00:00,60.9,54.3,29.95,North,-999,0.0,0.0,79,0.00,,,-99.99,WeatherLink 5.5,2013-06-09 03:00:00,
2013-06-08 23:05:00,60.6,54.0,29.95,North,-999,0.0,0.0,79,0.00,,,-99.99,WeatherLink 5.5,2013-06-09 03:05:00,
2013-06-08 23:10:00,60.4,54.2,29.95,North,-999,0.0,0.0,80,0.00,,,-99.99,WeatherLink 5.5,2013-06-09 03:10:00,
2013-06-08 23:15:00,60.4,54.2,29.95,North,-999,0.0,0.0,80,0.00,,,-99.99,WeatherLink 5.5,2013-06-09 03:15:00,
2013-06-08 23:20:00,60.1,53.9,29.95,North,-999,0.0,0.0,80,0.00,,,-99.99,WeatherLink 5.5,2013-06-09 03:20:00,
2013-06-08 23:25:00,59.9,53.7,29.95,North,-999,0.0,0.0,80,0.00,,,-99.99,WeatherLink 5.5,2013-06-09 03:25:00,
2013-06-08 23:30:00,59.9,53.7,29.95,North,-999,0.0,0.0,80,0.00,,,-99.99,WeatherLink 5.5,2013-06-09 03:30:00,
2013-06-08 23:35:00,59.8,54.0,29.95,North,-999,0.0,0.0,81,0.00,,,-99.99,WeatherLink 5.5,2013-06-09 03:35:00,
2013-06-08 23:40:00,59.6,53.8,29.95,North,-999,0.0,0.0,81,0.00,,,-99.99,WeatherLink 5.5,2013-06-09 03:40:00,
2013-06-08 23:45:00,59.6,53.8,29.95,North,-999,0.0,0.0,81,0.00,,,-99.99,WeatherLink 5.5,2013-06-09 03:45:00,
2013-06-08 23:50:00,59.5,53.7,29.95,North,-999,0.0,0.0,81,0.00,,,-99.99,WeatherLink 5.5,2013-06-09 03:50:00,
2013-06-08 23:55:00,59.3,53.5,29.95,North,-999,0.0,0.0,81,0.00,,,-99.99,WeatherLink 5.5,2013-06-09 03:55:00,